Time;durP1;ratioP1;P1;durP2;ratioP2;P2;SDS_P1;SDS_P2;PMS_P1;PMS_P2;Temp;Humidity;BMP_temperature;BMP_pressure;BME280_temperature;BME280_humidity;BME280_pressure;Samples;Min_cycle;Max_cycle;Signal;HPM_P1;HPM_P2
2021/12/19 00:01:34;;;;;;;31.92;17.48;;;2.40;99.90;;;;;;5027227;28;20310;-79
2021/12/19 00:04:17;;;;;;;32.20;17.75;;;;;;;;;;5030980;28;20220;-79
2021/12/19 00:09:30;;;;;;;34.70;17.50;;;;;;;;;;5035923;28;20219;-80
2021/12/19 00:11:58;;;;;;;38.22;19.52;;;2.50;99.90;;;;;;5039400;28;20234;-79
2021/12/19 00:14:26;;;;;;;41.25;19.13;;;;;;;;;;5037667;28;20268;-79
2021/12/19 00:16:53;;;;;;;37.90;16.85;;;;;;;;;;5038484;28;20198;-79
2021/12/19 00:19:21;;;;;;;33.25;17.75;;;;;;;;;;5035573;28;20210;-79
2021/12/19 00:21:49;;;;;;;34.40;15.82;;;;;;;;;;5036286;28;20249;-79
2021/12/19 00:24:16;;;;;;;31.95;14.85;;;;;;;;;;5032567;28;20207;-79
2021/12/19 00:26:44;;;;;;;31.75;16.10;;;;;;;;;;5034208;28;20290;-79
2021/12/19 00:29:11;;;;;;;31.23;17.20;;;;;;;;;;5035066;28;20227;-79
2021/12/19 00:31:38;;;;;;;30.75;15.63;;;;;;;;;;5032822;28;20289;-80
2021/12/19 00:34:06;;;;;;;28.90;16.92;;;;;;;;;;5034428;28;20261;-79
2021/12/19 00:36:33;;;;;;;33.60;16.33;;;;;;;;;;5034347;28;20204;-79
2021/12/19 00:39:01;;;;;;;25.70;14.80;;;2.60;99.90;;;;;;5030319;28;20220;-79
2021/12/19 00:41:28;;;;;;;36.53;16.25;;;;;;;;;;5033664;28;20278;-79
2021/12/19 00:44:07;;;;;;;26.70;14.60;;;;;;;;;;5035092;28;20289;-79
2021/12/19 00:46:42;;;;;;;26.95;14.82;;;;;;;;;;5030725;28;20704;-79
2021/12/19 00:49:09;;;;;;;39.10;14.90;;;;;;;;;;5030367;28;20262;-79
2021/12/19 00:51:37;;;;;;;33.63;16.88;;;;;;;;;;5039222;28;20228;-79
2021/12/19 00:54:09;;;;;;;34.35;19.60;;;2.60;99.90;;;;;;5033826;28;20672;-79
2021/12/19 00:56:36;;;;;;;34.90;17.73;;;;;;;;;;5026771;28;20624;-79
2021/12/19 00:59:03;;;;;;;33.17;17.17;;;;;;;;;;5030973;28;20212;-79
2021/12/19 01:01:31;;;;;;;40.42;19.50;;;;;;;;;;5034691;28;20244;-79
2021/12/19 01:03:58;;;;;;;32.03;18.45;;;;;;;;;;5038176;28;20221;-79
2021/12/19 01:06:27;;;;;;;39.10;19.52;;;;;;;;;;5034566;28;20725;-80
2021/12/19 01:08:55;;;;;;;36.08;18.35;;;;;;;;;;5034604;28;20210;-79
2021/12/19 01:11:23;;;;;;;32.63;19.17;;;;;;;;;;5036960;28;20225;-79
2021/12/19 01:13:51;;;;;;;36.75;17.73;;;;;;;;;;5034934;28;20257;-79
2021/12/19 01:16:19;;;;;;;44.92;18.58;;;;;;;;;;5033780;28;20281;-80
2021/12/19 01:18:46;;;;;;;62.92;19.00;;;;;;;;;;5038138;28;20197;-80
2021/12/19 01:21:13;;;;;;;51.40;19.55;;;;;;;;;;5038344;28;20198;-79
2021/12/19 01:23:41;;;;;;;33.63;18.00;;;;;;;;;;5037788;28;20218;-80
2021/12/19 01:26:08;;;;;;;33.70;17.33;;;;;;;;;;5033818;28;20230;-80
2021/12/19 01:28:36;;;;;;;34.33;18.35;;;;;;;;;;5041125;28;20232;-79
2021/12/19 01:31:04;;;;;;;32.00;19.23;;;2.50;99.90;;;;;;5029437;28;20234;-80
2021/12/19 01:33:31;;;;;;;36.80;18.73;;;;;;;;;;5034941;28;20621;-80
2021/12/19 01:35:58;;;;;;;38.55;16.58;;;;;;;;;;5039019;28;20748;-80
2021/12/19 01:38:25;;;;;;;28.75;17.58;;;;;;;;;;5037081;28;20244;-79
2021/12/19 01:40:53;;;;;;;49.88;19.23;;;;;;;;;;5036508;28;20201;-78
2021/12/19 01:43:24;;;;;;;40.80;18.20;;;2.40;99.90;;;;;;5035501;28;20287;-79
2021/12/19 01:45:53;;;;;;;35.60;19.38;;;2.40;99.90;;;;;;5030530;28;20218;-79
2021/12/19 01:48:22;;;;;;;38.83;19.00;;;2.40;99.90;;;;;;5037627;28;20217;-77
2021/12/19 01:50:49;;;;;;;33.17;15.75;;;2.40;99.90;;;;;;5033550;28;20238;-79
2021/12/19 01:53:17;;;;;;;42.08;18.70;;;2.40;99.90;;;;;;5032810;28;20803;-79
2021/12/19 01:55:45;;;;;;;39.65;17.85;;;;;;;;;;5033220;28;20321;-79
2021/12/19 01:58:13;;;;;;;38.03;17.67;;;2.50;99.90;;;;;;5035838;28;20281;-79
2021/12/19 02:00:42;;;;;;;40.42;18.30;;;2.50;99.90;;;;;;5031393;28;20303;-79
2021/12/19 02:03:13;;;;;;;39.78;20.55;;;2.40;99.90;;;;;;5035339;28;20296;-79
2021/12/19 02:05:40;;;;;;;44.55;18.92;;;;;;;;;;5032657;28;20284;-79
2021/12/19 02:08:09;;;;;;;35.67;17.33;;;2.40;99.90;;;;;;5033819;28;20240;-77
2021/12/19 02:10:37;;;;;;;42.85;17.80;;;2.40;99.90;;;;;;5033969;28;20664;-77
2021/12/19 02:13:06;;;;;;;34.70;17.88;;;;;;;;;;5032155;28;20260;-78
2021/12/19 02:15:34;;;;;;;46.50;18.17;;;2.40;99.90;;;;;;5031280;28;20321;-78
2021/12/19 02:18:04;;;;;;;39.92;16.90;;;2.40;99.90;;;;;;5038798;28;20260;-77
2021/12/19 02:20:36;;;;;;;49.97;17.08;;;;;;;;;;5032167;28;20216;-78
2021/12/19 02:23:04;;;;;;;36.22;18.10;;;2.40;99.90;;;;;;5033630;28;20274;-77
2021/12/19 02:25:31;;;;;;;29.65;17.15;;;;;;;;;;5032932;28;20229;-79
2021/12/19 02:27:59;;;;;;;38.83;18.05;;;2.30;99.90;;;;;;5036183;28;20205;-77
2021/12/19 02:30:27;;;;;;;28.52;13.43;;;;;;;;;;5041570;28;20213;-77
2021/12/19 02:32:54;;;;;;;25.58;14.10;;;;;;;;;;5032911;28;20290;-77
2021/12/19 02:35:25;;;;;;;37.22;15.85;;;;;;;;;;5030964;28;20229;-78
2021/12/19 02:49:22;;;;;;;40.95;14.20;;;;;;;;;;5119343;28;20727;-77
2021/12/19 02:51:51;;;;;;;22.90;13.60;;;;;;;;;;5117101;28;20209;-78
2021/12/19 02:54:18;;;;;;;23.85;11.65;;;;;;;;;;5116679;28;20197;-78
2021/12/19 02:56:47;;;;;;;27.83;12.77;;;;;;;;;;5118910;28;20242;-78
2021/12/19 02:59:14;;;;;;;25.77;13.75;;;;;;;;;;5121438;28;20260;-78
2021/12/19 03:01:44;;;;;;;29.35;11.65;;;;;;;;;;5120715;28;20297;-78
2021/12/19 03:04:11;;;;;;;24.10;11.95;;;;;;;;;;5117159;28;20228;-78
2021/12/19 03:06:43;;;;;;;22.10;10.85;;;;;;;;;;5117344;28;20224;-77
2021/12/19 03:09:11;;;;;;;22.25;12.05;;;;;;;;;;5119480;28;20531;-78
2021/12/19 03:12:04;;;;;;;29.17;13.55;;;;;;;;;;5117869;28;20834;-78
2021/12/19 03:20:04;;;;;;;29.00;13.48;;;2.10;99.90;;;;;;5117250;28;20907;-78
2021/12/19 03:22:33;;;;;;;29.08;12.30;;;;;;;;;;5117139;28;20214;-78
2021/12/19 03:25:01;;;;;;;29.45;12.55;;;;;;;;;;5119064;28;20207;-78
2021/12/19 03:27:29;;;;;;;30.75;13.90;;;;;;;;;;5119046;28;20204;-77
2021/12/19 03:29:59;;;;;;;21.77;11.13;;;;;;;;;;5121223;28;20214;-78
2021/12/19 03:32:28;;;;;;;26.13;13.20;;;;;;;;;;5116214;28;20247;-78
2021/12/19 03:34:58;;;;;;;32.65;13.48;;;;;;;;;;5099689;28;20230;-78
2021/12/19 03:37:25;;;;;;;20.73;12.07;;;;;;;;;;5120435;28;20189;-78
2021/12/19 03:42:33;;;;;;;22.75;11.00;;;;;;;;;;5110105;28;20257;-78
2021/12/19 03:45:02;;;;;;;33.17;11.90;;;2.20;99.90;;;;;;5121945;28;20197;-78
2021/12/19 03:47:30;;;;;;;23.60;11.80;;;;;;;;;;5116927;28;20664;-78
2021/12/19 03:49:57;;;;;;;20.40;11.63;;;;;;;;;;5116405;28;20650;-78
2021/12/19 03:52:24;;;;;;;22.42;12.20;;;;;;;;;;5106112;28;20277;-78
2021/12/19 03:54:52;;;;;;;33.05;14.63;;;;;;;;;;5103602;28;20209;-78
2021/12/19 03:57:19;;;;;;;28.77;13.35;;;;;;;;;;5103760;28;20611;-78
2021/12/19 03:59:48;;;;;;;26.73;12.60;;;;;;;;;;5103223;28;20240;-78
2021/12/19 04:02:24;;;;;;;19.55;12.88;;;;;;;;;;5099781;28;20207;-78
2021/12/19 04:04:51;;;;;;;26.55;14.23;;;;;;;;;;5105357;28;20205;-78
2021/12/19 04:07:19;;;;;;;25.50;13.43;;;;;;;;;;5103654;28;20205;-78
2021/12/19 04:09:46;;;;;;;29.60;11.48;;;;;;;;;;5101685;28;20203;-78
2021/12/19 04:12:14;;;;;;;24.52;13.85;;;;;;;;;;5103151;28;20408;-78
2021/12/19 04:14:41;;;;;;;28.40;13.88;;;2.10;99.90;;;;;;5101895;28;20221;-78
2021/12/19 04:17:09;;;;;;;23.02;13.00;;;;;;;;;;5106076;28;20280;-78
2021/12/19 04:19:37;;;;;;;25.20;13.77;;;;;;;;;;5104820;28;20210;-78
2021/12/19 04:22:05;;;;;;;25.33;12.55;;;;;;;;;;5102126;28;20229;-78
2021/12/19 04:24:32;;;;;;;25.75;11.63;;;;;;;;;;5100536;28;20200;-78
2021/12/19 04:26:59;;;;;;;26.05;11.65;;;;;;;;;;5100658;28;20263;-78
2021/12/19 04:29:27;;;;;;;23.83;13.18;;;;;;;;;;5101697;28;20605;-79
2021/12/19 04:31:54;;;;;;;21.80;12.10;;;1.80;99.90;;;;;;5102005;28;20200;-78
2021/12/19 04:34:22;;;;;;;28.95;15.07;;;;;;;;;;5101545;28;20210;-78
2021/12/19 04:36:56;;;;;;;26.80;12.95;;;;;;;;;;5096789;28;20301;-78
2021/12/19 04:39:34;;;;;;;23.77;11.60;;;1.80;99.90;;;;;;5101282;28;20223;-77
2021/12/19 04:43:07;;;;;;;23.13;11.90;;;;;;;;;;5099308;28;20218;-78
2021/12/19 04:51:18;;;;;;;31.98;11.25;;;;;;;;;;5101101;28;20241;-78
2021/12/19 04:54:01;;;;;;;16.55;10.02;;;1.90;99.90;;;;;;5106831;28;20256;-78
2021/12/19 04:56:40;;;;;;;23.70;11.55;;;;;;;;;;5099548;28;20214;-77
2021/12/19 04:59:48;;;;;;;20.50;11.57;;;;;;;;;;5101695;28;20197;-77
2021/12/19 05:02:26;;;;;;;20.42;11.02;;;;;;;;;;5096968;28;20210;-78
2021/12/19 05:05:21;;;;;;;21.20;11.07;;;;;;;;;;5103105;28;20238;-78
2021/12/19 05:16:05;;;;;;;25.80;12.73;;;;;;;;;;5098338;28;20203;-78
2021/12/19 05:18:36;;;;;;;23.70;11.20;;;;;;;;;;5104216;28;20198;-78
2021/12/19 05:21:08;;;;;;;21.52;9.68;;;;;;;;;;5101466;28;20325;-78
2021/12/19 05:23:51;;;;;;;19.02;9.23;;;1.30;99.90;;;;;;5104467;28;20196;-77
2021/12/19 05:26:19;;;;;;;16.10;8.13;;;1.20;99.90;;;;;;5102480;28;20204;-77
2021/12/19 05:28:48;;;;;;;24.13;9.23;;;;;;;;;;5100597;28;20205;-77
2021/12/19 05:31:16;;;;;;;30.33;8.00;;;;;;;;;;5097999;28;20232;-78
2021/12/19 05:33:44;;;;;;;23.48;10.55;;;;;;;;;;5100895;28;20265;-78
2021/12/19 05:47:26;;;;;;;15.23;8.63;;;;;;;;;;5102057;28;20210;-78
2021/12/19 05:49:53;;;;;;;18.40;9.02;;;;;;;;;;5099190;28;20358;-78
2021/12/19 05:52:21;;;;;;;27.95;8.95;;;;;;;;;;5103742;28;20254;-78
2021/12/19 05:54:48;;;;;;;17.02;8.70;;;;;;;;;;5099907;28;20239;-78
2021/12/19 05:57:16;;;;;;;12.75;7.72;;;;;;;;;;5104062;28;20194;-78
2021/12/19 05:59:44;;;;;;;12.73;7.82;;;;;;;;;;5100159;28;20218;-78
2021/12/19 06:02:11;;;;;;;20.27;9.00;;;;;;;;;;5105618;28;20199;-77
2021/12/19 06:04:38;;;;;;;16.67;9.13;;;;;;;;;;5100155;28;20258;-78
2021/12/19 06:07:05;;;;;;;34.97;9.43;;;;;;;;;;5097957;28;20606;-78
2021/12/19 06:09:33;;;;;;;19.85;9.43;;;;;;;;;;5102095;28;20215;-78
2021/12/19 06:12:00;;;;;;;19.08;8.35;;;;;;;;;;5103386;28;20191;-78
2021/12/19 06:14:32;;;;;;;27.42;8.05;;;;;;;;;;5096489;28;20213;-78
2021/12/19 06:17:00;;;;;;;16.38;7.72;;;;;;;;;;5100143;28;20338;-78
2021/12/19 06:19:27;;;;;;;20.58;8.70;;;;;;;;;;5102623;28;20213;-77
2021/12/19 06:21:55;;;;;;;12.98;8.25;;;;;;;;;;5099634;28;20202;-77
2021/12/19 06:24:22;;;;;;;16.77;7.20;;;;;;;;;;5101405;28;20190;-78
2021/12/19 06:26:50;;;;;;;14.13;8.25;;;;;;;;;;5102970;28;20247;-78
2021/12/19 06:29:17;;;;;;;14.57;7.10;;;;;;;;;;5094406;28;20214;-78
2021/12/19 06:31:46;;;;;;;15.75;7.20;;;;;;;;;;5101900;28;20197;-78
2021/12/19 06:34:13;;;;;;;10.15;7.15;;;;;;;;;;5093913;28;21000;-78
2021/12/19 06:36:41;;;;;;;10.75;5.85;;;;;;;;;;5096967;28;20246;-77
2021/12/19 06:39:08;;;;;;;8.27;5.80;;;;;;;;;;5102820;28;20276;-77
2021/12/19 06:41:36;;;;;;;9.18;5.57;;;;;;;;;;5098665;28;20313;-77
2021/12/19 06:44:04;;;;;;;12.48;7.25;;;1.00;99.90;;;;;;5096234;28;20741;-78
2021/12/19 06:46:31;;;;;;;14.52;6.80;;;;;;;;;;5097682;28;20209;-78
2021/12/19 06:49:00;;;;;;;12.88;5.85;;;;;;;;;;5098770;28;20728;-78
2021/12/19 06:51:27;;;;;;;12.38;6.50;;;;;;;;;;5100203;28;20226;-78
2021/12/19 06:53:54;;;;;;;11.55;6.03;;;;;;;;;;5101499;28;20202;-78
2021/12/19 06:56:21;;;;;;;12.50;6.50;;;;;;;;;;5107125;28;20225;-78
2021/12/19 06:58:49;;;;;;;8.73;6.00;;;;;;;;;;5104846;28;20234;-79
2021/12/19 07:01:16;;;;;;;9.73;6.55;;;;;;;;;;5109114;28;20302;-77
2021/12/19 07:03:43;;;;;;;14.48;6.25;;;;;;;;;;5107779;28;20195;-78
2021/12/19 07:06:12;;;;;;;16.50;8.10;;;;;;;;;;5105998;28;20198;-78
2021/12/19 07:08:39;;;;;;;16.85;6.75;;;;;;;;;;5106727;28;21125;-78
2021/12/19 07:11:06;;;;;;;10.82;6.63;;;;;;;;;;5106311;28;20218;-79
2021/12/19 07:13:33;;;;;;;15.35;6.60;;;;;;;;;;5107421;28;20303;-80
2021/12/19 07:16:00;;;;;;;10.88;6.05;;;;;;;;;;5105044;28;20246;-80
2021/12/19 07:18:28;;;;;;;7.13;4.32;;;;;;;;;;5106519;28;20229;-80
2021/12/19 07:20:55;;;;;;;6.15;3.80;;;;;;;;;;5106526;28;20305;-80
2021/12/19 07:23:24;;;;;;;7.68;4.50;;;;;;;;;;5102344;28;20282;-80
2021/12/19 07:25:51;;;;;;;11.02;4.43;;;;;;;;;;5099666;28;20227;-80
2021/12/19 07:28:18;;;;;;;7.53;5.03;;;;;;;;;;5102970;28;20307;-80
2021/12/19 07:30:46;;;;;;;9.82;5.15;;;;;;;;;;5109631;28;20226;-80
2021/12/19 07:33:13;;;;;;;6.57;3.90;;;;;;;;;;5108565;28;20198;-80
2021/12/19 07:35:44;;;;;;;5.75;4.32;;;;;;;;;;5108724;28;20587;-80
2021/12/19 07:38:17;;;;;;;6.47;4.38;;;;;;;;;;5110092;28;20274;-80
2021/12/19 07:40:47;;;;;;;6.50;3.97;;;;;;;;;;5108882;28;20229;-80
2021/12/19 07:43:15;;;;;;;9.80;3.97;;;0.90;99.90;;;;;;5104074;28;20208;-80
2021/12/19 07:45:42;;;;;;;8.05;4.50;;;;;;;;;;5097025;28;20805;-80
2021/12/19 07:48:09;;;;;;;6.25;4.25;;;;;;;;;;5100422;28;20869;-80
2021/12/19 07:50:36;;;;;;;7.18;5.45;;;;;;;;;;5106763;28;20293;-80
2021/12/19 07:53:04;;;;;;;7.20;4.50;;;1.00;99.90;;;;;;5107890;28;20229;-80
2021/12/19 07:55:32;;;;;;;6.22;4.53;;;0.90;99.90;;;;;;5101344;28;20230;-80
2021/12/19 07:58:01;;;;;;;7.18;4.25;;;;;;;;;;5104338;28;20202;-80
2021/12/19 08:00:28;;;;;;;8.00;4.20;;;;;;;;;;5105966;28;20247;-80
2021/12/19 08:02:55;;;;;;;7.10;4.30;;;;;;;;;;5104891;28;20278;-80
2021/12/19 08:05:23;;;;;;;9.50;4.70;;;;;;;;;;5102735;28;20286;-80
2021/12/19 08:07:56;;;;;;;8.32;4.75;;;1.90;99.90;;;;;;5106608;28;20230;-81
2021/12/19 08:13:10;;;;;;;8.77;4.95;;;;;;;;;;5106634;28;20672;-80
2021/12/19 08:15:38;;;;;;;6.28;4.30;;;1.10;99.90;;;;;;5099650;28;20201;-80
2021/12/19 08:18:06;;;;;;;5.45;3.35;;;;;;;;;;5103772;28;20625;-80
2021/12/19 08:20:33;;;;;;;8.68;5.05;;;;;;;;;;5105981;28;20759;-80
2021/12/19 08:23:00;;;;;;;5.00;3.78;;;;;;;;;;5104499;28;20232;-80
2021/12/19 08:25:28;;;;;;;7.03;4.32;;;;;;;;;;5101027;28;20224;-80
2021/12/19 08:27:55;;;;;;;7.70;4.72;;;;;;;;;;5105411;28;20301;-80
2021/12/19 08:30:25;;;;;;;4.45;3.50;;;;;;;;;;5109106;28;20228;-81
2021/12/19 08:32:55;;;;;;;7.28;4.40;;;;;;;;;;5110232;28;20210;-81
2021/12/19 08:35:22;;;;;;;9.60;4.10;;;;;;;;;;5108675;28;20851;-80
2021/12/19 08:37:49;;;;;;;9.68;4.82;;;;;;;;;;5109958;28;20895;-81
2021/12/19 08:40:16;;;;;;;8.55;4.20;;;;;;;;;;5103385;28;20281;-81
2021/12/19 08:42:43;;;;;;;5.30;4.28;;;;;;;;;;5105656;28;20209;-81
2021/12/19 08:45:11;;;;;;;3.53;2.55;;;0.90;99.90;;;;;;5108525;28;20663;-82
2021/12/19 08:47:40;;;;;;;4.18;2.80;;;;;;;;;;5108712;28;20212;-82
2021/12/19 08:50:09;;;;;;;7.60;5.20;;;-0.50;99.90;;;;;;5105528;28;20624;-82
2021/12/19 08:52:36;;;;;;;3.90;3.40;;;;;;;;;;5104114;28;20276;-82
2021/12/19 08:55:05;;;;;;;5.28;2.97;;;1.40;99.90;;;;;;5107864;28;20274;-82
2021/12/19 08:57:32;;;;;;;7.32;4.35;;;;;;;;;;5103403;28;20703;-82
2021/12/19 09:00:00;;;;;;;7.55;4.00;;;;;;;;;;5105708;28;20649;-81
2021/12/19 09:02:27;;;;;;;6.47;3.95;;;;;;;;;;5108420;28;20343;-82
2021/12/19 09:04:55;;;;;;;5.70;3.90;;;;;;;;;;5105791;28;20266;-82
2021/12/19 09:07:23;;;;;;;11.18;3.85;;;;;;;;;;5108033;28;20220;-82
2021/12/19 09:09:50;;;;;;;7.50;4.93;;;;;;;;;;5107530;28;20202;-81
2021/12/19 09:12:17;;;;;;;5.30;4.80;;;;;;;;;;5108660;28;20199;-81
2021/12/19 09:14:45;;;;;;;6.50;4.85;;;;;;;;;;5107958;28;20202;-81
2021/12/19 09:17:12;;;;;;;6.00;4.63;;;;;;;;;;5107784;28;20264;-82
2021/12/19 09:19:39;;;;;;;5.43;3.30;;;;;;;;;;5104849;28;20776;-82
2021/12/19 09:22:08;;;;;;;3.75;2.67;;;;;;;;;;5108189;28;20227;-81
2021/12/19 09:24:36;;;;;;;7.22;2.95;;;;;;;;;;5107357;28;20237;-81
2021/12/19 09:27:04;;;;;;;2.20;2.03;;;;;;;;;;5107089;28;20272;-80
2021/12/19 09:29:31;;;;;;;3.30;3.05;;;;;;;;;;5103277;28;20202;-81
2021/12/19 09:31:59;;;;;;;4.47;2.85;;;;;;;;;;5101361;28;20202;-82
2021/12/19 09:34:27;;;;;;;5.68;2.75;;;1.40;99.90;;;;;;5101866;28;20203;-81
2021/12/19 09:36:54;;;;;;;3.80;3.45;;;;;;;;;;5104709;28;20719;-82
2021/12/19 09:39:23;;;;;;;4.10;2.53;;;;;;;;;;5107698;28;20285;-82
2021/12/19 09:41:54;;;;;;;4.13;2.63;;;1.50;99.90;;;;;;5108308;27;20241;-81
2021/12/19 09:44:22;;;;;;;5.03;2.35;;;;;;;;;;5120417;27;20259;-81
2021/12/19 09:46:50;;;;;;;4.15;2.67;;;1.70;99.90;;;;;;5117734;27;20198;-82
2021/12/19 09:49:19;;;;;;;4.72;3.20;;;;;;;;;;5118921;27;20281;-81
2021/12/19 09:51:47;;;;;;;3.22;2.40;;;1.60;99.90;;;;;;5121344;27;20629;-82
2021/12/19 09:54:15;;;;;;;3.88;2.33;;;1.70;99.90;;;;;;5119353;27;20275;-81
2021/12/19 09:56:44;;;;;;;4.57;3.10;;;;;;;;;;5123048;27;20197;-81
2021/12/19 09:59:13;;;;;;;2.92;2.58;;;1.70;99.90;;;;;;5122970;27;20276;-80
2021/12/19 10:01:42;;;;;;;4.78;2.85;;;1.70;99.90;;;;;;5122411;27;20379;-81
2021/12/19 10:04:35;;;;;;;7.00;3.20;;;1.60;99.90;;;;;;5125942;27;20288;-81
2021/12/19 10:07:13;;;;;;;5.28;3.25;;;;;;;;;;5125261;27;20233;-80
2021/12/19 10:09:54;;;;;;;4.10;3.20;;;1.80;99.90;;;;;;5122263;27;20744;-82
2021/12/19 10:15:30;;;;;;;3.50;2.63;;;1.80;99.90;;;;;;5059802;28;20256;-81
2021/12/19 10:18:02;;;;;;;5.50;4.40;;;;;;;;;;5109436;27;20287;-81
2021/12/19 10:20:41;;;;;;;4.35;3.75;;;1.70;99.90;;;;;;5126243;27;20328;-81
2021/12/19 10:23:13;;;;;;;4.72;2.83;;;1.80;99.90;;;;;;5122649;27;20193;-81
2021/12/19 10:25:41;;;;;;;3.35;2.65;;;1.90;99.90;;;;;;5111565;27;20301;-82
2021/12/19 10:28:10;;;;;;;5.55;3.50;;;2.00;99.90;;;;;;5124570;27;20246;-81
2021/12/19 10:30:39;;;;;;;4.45;3.10;;;2.10;99.90;;;;;;5119857;27;20321;-81
2021/12/19 10:33:10;;;;;;;5.05;2.90;;;1.90;99.90;;;;;;5123552;27;20606;-81
2021/12/19 10:35:40;;;;;;;3.80;3.05;;;2.10;99.90;;;;;;5120043;27;21345;-81
2021/12/19 10:38:14;;;;;;;3.78;2.35;;;2.00;99.90;;;;;;5117561;28;20285;-80
2021/12/19 10:40:45;;;;;;;7.97;3.45;;;;;;;;;;5121652;28;20239;-81
2021/12/19 10:43:16;;;;;;;5.85;3.45;;;;;;;;;;5120648;28;20193;-81
2021/12/19 10:45:46;;;;;;;4.13;3.10;;;;;;;;;;5110425;28;20613;-82
2021/12/19 10:48:23;;;;;;;4.68;3.40;;;2.00;99.90;;;;;;5119458;28;20228;-81
2021/12/19 10:50:53;;;;;;;5.28;3.30;;;1.90;99.90;;;;;;5115555;28;20281;-82
2021/12/19 10:53:26;;;;;;;6.85;3.50;;;-0.60;99.90;;;;;;5119607;28;20193;-81
2021/12/19 10:55:53;;;;;;;4.57;3.33;;;;;;;;;;5120994;28;20281;-82
2021/12/19 10:58:30;;;;;;;4.07;3.67;;;2.20;99.90;;;;;;5120533;28;20284;-82
2021/12/19 11:01:03;;;;;;;4.00;3.58;;;;;;;;;;5122108;27;20201;-81
2021/12/19 11:03:35;;;;;;;4.63;3.20;;;;;;;;;;5122257;27;20229;-82
2021/12/19 11:06:05;;;;;;;6.30;4.03;;;;;;;;;;5121591;27;20193;-82
2021/12/19 11:08:33;;;;;;;4.72;3.25;;;;;;;;;;5121705;27;20203;-82
2021/12/19 11:11:00;;;;;;;4.55;3.42;;;;;;;;;;5127549;27;20238;-81
2021/12/19 11:13:29;;;;;;;5.00;3.28;;;;;;;;;;5124220;27;20253;-83
2021/12/19 11:15:57;;;;;;;2.70;2.30;;;2.00;99.90;;;;;;5123458;27;20229;-82
2021/12/19 11:18:25;;;;;;;6.47;3.25;;;1.80;99.90;;;;;;5121213;27;20280;-82
2021/12/19 11:20:53;;;;;;;4.60;3.63;;;;;;;;;;5119630;27;20236;-82
2021/12/19 11:23:26;;;;;;;5.40;3.35;;;;;;;;;;5125319;27;20255;-82
2021/12/19 11:25:55;;;;;;;3.28;3.05;;;2.10;99.90;;;;;;5116843;27;20210;-82
2021/12/19 11:28:22;;;;;;;3.05;2.63;;;;;;;;;;5123479;27;20194;-82
2021/12/19 11:30:51;;;;;;;5.25;3.40;;;;;;;;;;5125105;27;20681;-83
2021/12/19 11:33:32;;;;;;;7.13;3.42;;;2.00;99.90;;;;;;5119196;27;20303;-82
2021/12/19 11:36:00;;;;;;;6.80;5.50;;;;;;;;;;5115958;27;20282;-82
2021/12/19 11:38:29;;;;;;;7.55;6.80;;;2.20;99.90;;;;;;5119287;27;20284;-81
2021/12/19 11:40:56;;;;;;;7.75;7.05;;;;;;;;;;5122386;27;20617;-83
2021/12/19 11:43:36;;;;;;;4.97;3.72;;;;;;;;;;5122802;27;20227;-82
2021/12/19 11:46:14;;;;;;;5.75;3.83;;;2.10;99.90;;;;;;5126288;27;20236;-83
2021/12/19 11:48:45;;;;;;;9.23;7.60;;;2.10;99.90;;;;;;5127183;27;20197;-83
2021/12/19 11:51:18;;;;;;;4.50;4.03;;;;;;;;;;5127010;27;20312;-82
2021/12/19 11:53:48;;;;;;;4.63;3.25;;;;;;;;;;5119269;27;20294;-80
2021/12/19 11:56:17;;;;;;;3.05;2.47;;;1.90;99.90;;;;;;5123323;27;20206;-81
2021/12/19 11:58:49;;;;;;;4.63;4.03;;;1.90;99.90;;;;;;5117252;27;20263;-81
2021/12/19 12:01:23;;;;;;;4.47;3.08;;;1.90;99.90;;;;;;5122966;27;20213;-82
2021/12/19 12:03:54;;;;;;;5.93;3.40;;;2.00;99.90;;;;;;5120506;27;20558;-81
2021/12/19 12:06:36;;;;;;;5.45;3.65;;;2.20;99.90;;;;;;5119617;27;20222;-82
2021/12/19 12:09:22;;;;;;;7.53;3.90;;;;;;;;;;5124379;27;20209;-81
2021/12/19 12:12:20;;;;;;;5.30;4.03;;;2.10;99.90;;;;;;5118128;27;20278;-81
2021/12/19 12:15:04;;;;;;;6.05;3.05;;;2.20;99.90;;;;;;5128716;27;20204;-82
2021/12/19 12:17:39;;;;;;;5.40;3.55;;;2.20;99.90;;;;;;5118715;27;20198;-82
2021/12/19 12:20:20;;;;;;;5.68;4.03;;;2.20;99.90;;;;;;5119187;27;20217;-80
2021/12/19 12:22:59;;;;;;;4.70;4.20;;;2.20;99.90;;;;;;5125991;27;20231;-81
2021/12/19 12:25:34;;;;;;;5.00;4.07;;;2.10;99.90;;;;;;5123457;27;20292;-80
2021/12/19 12:28:06;;;;;;;4.50;3.90;;;2.20;99.90;;;;;;5128701;27;20816;-82
2021/12/19 12:30:36;;;;;;;4.07;3.30;;;2.20;99.90;;;;;;5120539;27;20206;-81
2021/12/19 12:33:07;;;;;;;5.22;3.72;;;2.20;99.90;;;;;;5126711;27;20189;-81
2021/12/19 12:35:36;;;;;;;6.00;4.25;;;2.30;99.90;;;;;;5123877;27;20563;-81
2021/12/19 12:38:04;;;;;;;4.07;3.25;;;2.10;99.90;;;;;;5126817;27;20528;-81
2021/12/19 12:40:42;;;;;;;4.78;3.72;;;;;;;;;;5122797;27;20237;-81
2021/12/19 12:43:12;;;;;;;3.72;3.20;;;2.00;99.90;;;;;;5122350;27;20233;-81
2021/12/19 12:46:03;;;;;;;4.60;4.13;;;1.80;99.90;;;;;;5116403;27;20246;-81
2021/12/19 12:48:41;;;;;;;4.20;3.55;;;2.20;99.90;;;;;;5119818;27;20272;-82
2021/12/19 12:51:10;;;;;;;7.20;5.00;;;2.00;99.90;;;;;;5121260;27;20197;-82
2021/12/19 12:53:39;;;;;;;5.93;4.22;;;2.00;99.90;;;;;;5123063;27;20199;-81
2021/12/19 12:56:12;;;;;;;5.97;4.38;;;2.00;99.90;;;;;;5113927;27;20206;-80
2021/12/19 12:58:43;;;;;;;5.03;4.53;;;1.90;99.90;;;;;;5119028;27;20291;-82
2021/12/19 13:01:27;;;;;;;5.80;4.82;;;1.80;99.90;;;;;;5120396;27;20725;-82
2021/12/19 13:04:12;;;;;;;4.30;3.33;;;1.90;99.90;;;;;;5122870;27;20255;-82
2021/12/19 13:06:46;;;;;;;5.55;3.97;;;2.80;99.90;;;;;;5118590;27;20202;-82
2021/12/19 13:09:16;;;;;;;5.70;4.10;;;2.10;99.90;;;;;;5123390;27;20715;-82
2021/12/19 13:11:44;;;;;;;5.22;4.63;;;2.10;99.90;;;;;;5122062;27;20288;-83
2021/12/19 13:14:17;;;;;;;4.57;3.63;;;2.00;99.90;;;;;;5119312;27;20290;-82
2021/12/19 13:16:51;;;;;;;6.10;3.47;;;2.00;99.90;;;;;;5117840;27;20295;-82
2021/12/19 13:19:37;;;;;;;4.30;3.90;;;;;;;;;;5117508;27;20212;-82
2021/12/19 13:22:06;;;;;;;4.97;4.20;;;;;;;;;;5120817;27;20620;-82
2021/12/19 13:24:35;;;;;;;4.55;3.97;;;;;;;;;;5122088;27;20271;-81
2021/12/19 13:27:07;;;;;;;5.18;3.38;;;2.10;99.90;;;;;;5119818;27;20208;-81
2021/12/19 13:29:35;;;;;;;6.88;5.15;;;;;;;;;;5120343;27;20258;-81
2021/12/19 13:32:18;;;;;;;5.60;3.47;;;;;;;;;;5115378;27;20266;-82
2021/12/19 13:34:45;;;;;;;8.02;4.32;;;;;;;;;;5119705;27;20258;-82
2021/12/19 13:37:14;;;;;;;5.25;3.92;;;;;;;;;;5120649;27;20214;-82
2021/12/19 13:39:43;;;;;;;4.03;3.40;;;;;;;;;;5117303;27;20201;-81
2021/12/19 13:42:11;;;;;;;8.77;5.72;;;1.90;99.90;;;;;;5115966;27;20226;-81
2021/12/19 13:44:39;;;;;;;7.18;5.05;;;;;;;;;;5116479;27;20233;-82
2021/12/19 13:47:14;;;;;;;10.43;8.98;;;2.20;99.90;;;;;;5121943;27;20205;-82
2021/12/19 13:49:41;;;;;;;11.90;9.50;;;;;;;;;;5121520;27;20737;-82
2021/12/19 13:52:08;;;;;;;12.10;9.85;;;2.30;99.90;;;;;;5117155;27;20274;-82
2021/12/19 13:54:40;;;;;;;12.90;8.48;;;;;;;;;;5116668;27;20213;-81
2021/12/19 13:57:18;;;;;;;7.20;6.50;;;2.00;99.90;;;;;;5122722;27;20206;-82
2021/12/19 13:59:45;;;;;;;7.78;6.18;;;;;;;;;;5121214;27;20229;-81
2021/12/19 14:02:13;;;;;;;5.88;4.55;;;;;;;;;;5117339;27;20294;-82
2021/12/19 14:04:40;;;;;;;10.50;4.22;;;;;;;;;;5121127;27;20307;-81
2021/12/19 14:07:13;;;;;;;12.48;11.00;;;2.10;99.90;;;;;;5121377;27;20204;-81
2021/12/19 14:09:43;;;;;;;13.38;11.98;;;2.10;99.90;;;;;;5122078;27;20193;-82
2021/12/19 14:12:15;;;;;;;9.30;8.27;;;2.30;99.90;;;;;;5121173;27;20280;-82
2021/12/19 14:14:42;;;;;;;11.98;10.55;;;;;;;;;;5117236;27;20198;-81
2021/12/19 14:17:11;;;;;;;20.35;16.92;;;2.20;99.90;;;;;;5110424;27;20230;-81
2021/12/19 14:19:39;;;;;;;10.30;9.00;;;2.30;99.90;;;;;;5118337;27;20367;-82
2021/12/19 14:22:15;;;;;;;5.78;5.20;;;2.40;99.90;;;;;;5121390;27;20286;-82
2021/12/19 14:24:44;;;;;;;4.90;3.97;;;2.30;99.90;;;;;;5116825;27;20205;-81
2021/12/19 14:27:18;;;;;;;6.20;4.60;;;2.30;99.90;;;;;;5117605;27;20209;-82
2021/12/19 14:29:51;;;;;;;7.25;6.18;;;2.10;99.90;;;;;;5122299;27;20608;-82
2021/12/19 14:32:20;;;;;;;7.00;4.65;;;1.90;99.90;;;;;;5125381;27;20281;-81
2021/12/19 14:34:51;;;;;;;13.07;8.77;;;2.00;99.90;;;;;;5119867;27;20546;-81
2021/12/19 14:37:24;;;;;;;6.50;4.70;;;2.00;99.90;;;;;;5121918;27;20310;-82
2021/12/19 14:40:10;;;;;;;5.22;4.63;;;2.00;99.90;;;;;;5120853;28;20209;-82
2021/12/19 14:42:41;;;;;;;9.23;6.20;;;1.90;99.90;;;;;;5120514;28;20236;-81
2021/12/19 14:45:10;;;;;;;7.78;6.03;;;1.90;99.90;;;;;;5119949;28;20220;-82
2021/12/19 14:47:39;;;;;;;4.53;3.85;;;;;;;;;;5127037;28;20209;-82
2021/12/19 14:50:15;;;;;;;5.63;3.90;;;1.90;99.90;;;;;;5119509;28;20573;-82
2021/12/19 14:52:56;;;;;;;7.45;5.40;;;;;;;;;;5118187;28;20622;-82
2021/12/19 14:55:26;;;;;;;8.50;7.47;;;1.90;99.90;;;;;;5121953;28;20292;-82
2021/12/19 14:57:53;;;;;;;7.72;6.00;;;;;;;;;;5116734;28;20297;-82
2021/12/19 15:00:21;;;;;;;9.25;6.10;;;1.90;99.90;;;;;;5117137;28;20202;-82
2021/12/19 15:02:49;;;;;;;20.02;8.05;;;;;;;;;;5119415;28;20324;-82
2021/12/19 15:05:16;;;;;;;9.48;6.03;;;;;;;;;;5118225;28;20772;-82